CDT,Max TemperatureF,Mean TemperatureF,Min TemperatureF,Max Dew PointF,MeanDew PointF,Min DewpointF,Max Humidity, Mean Humidity, Min Humidity, Max Sea Level PressureIn, Mean Sea Level PressureIn, Min Sea Level PressureIn, Max VisibilityMiles, Mean VisibilityMiles, Min VisibilityMiles, Max Wind SpeedMPH, Mean Wind SpeedMPH, Max Gust SpeedMPH,PrecipitationIn, CloudCover, Events, WindDirDegrees
2013-8-1,86,75,64,68,66,62,100,75,47,30.13,30.06,29.99,10,8,0,12,3,,0.00,0,Fog,84
2013-8-2,86,79,72,74,71,66,87,77,65,29.99,29.93,29.89,10,10,5,15,8,22,0.00,1,,144
2013-8-3,86,77,68,74,69,66,94,85,57,30.15,30.07,29.89,10,7,2,18,10,30,1.58,6,Rain-Thunderstorm,71
2013-8-4,77,75,73,73,71,68,94,89,82,30.18,30.10,30.02,10,10,7,14,7,,0.15,5,Rain,80
2013-8-5,91,82,73,76,72,68,91,76,54,30.02,29.94,29.85,10,10,7,15,8,21,0.03,3,Rain,166
2013-8-6,91,82,73,76,73,69,91,76,59,29.92,29.87,29.82,10,10,8,14,8,20,0.06,2,Rain,127
2013-8-7,89,81,73,77,73,69,90,81,59,30.01,29.91,29.83,10,10,6,16,8,22,0.32,4,Rain-Thunderstorm,95
2013-8-8,82,75,68,73,68,65,96,87,67,30.05,29.95,29.83,10,7,2,23,11,37,3.94,6,Rain-Thunderstorm,52
2013-8-9,81,75,69,72,69,67,100,83,65,30.05,30.00,29.93,10,10,7,9,6,,0.16,5,Rain-Thunderstorm,205
2013-8-10,82,76,69,70,68,66,96,79,65,30.15,30.10,30.04,10,9,2,13,7,18,0.00,5,Rain,57
2013-8-11,84,78,71,73,70,67,91,80,65,30.14,30.09,30.03,10,10,5,9,6,,0.00,6,,94
2013-8-12,82,76,71,73,71,68,97,86,70,30.11,30.05,29.97,10,8,1,18,4,26,0.10,5,Rain-Thunderstorm,193
2013-8-13,77,72,66,72,70,63,100,90,73,30.09,30.05,29.99,10,9,4,14,3,,0.10,5,Rain,47
2013-8-14,77,70,63,62,59,56,90,72,50,30.17,30.11,30.07,10,10,10,14,8,17,0.00,1,,69
2013-8-15,75,66,57,59,55,53,93,70,46,30.15,30.10,30.04,10,10,10,8,5,16,0.00,0,,87
2013-8-16,75,68,61,59,57,55,90,71,51,30.14,30.09,30.04,10,10,10,9,6,,0.00,2,,87
2013-8-17,75,65,55,62,57,54,96,77,53,30.17,30.13,30.08,10,9,2,10,4,,0.00,2,,49
2013-8-18,81,71,61,64,61,56,94,73,42,30.16,30.11,30.07,10,9,3,9,5,,0.00,1,,92
2013-8-19,82,73,64,65,61,51,93,68,33,30.13,30.08,30.02,10,9,5,8,3,,0.00,0,,105
2013-8-20,84,74,64,66,63,59,93,68,41,30.11,30.07,30.03,10,10,9,8,4,,0.00,0,,135
2013-8-21,89,78,66,68,65,62,90,67,40,30.13,30.09,30.05,10,10,9,13,6,17,0.00,2,,158
2013-8-22,88,78,68,70,67,64,91,70,46,30.13,30.08,30.03,10,10,8,9,4,,0.00,0,,124
2013-8-23,89,80,70,71,67,62,97,69,40,30.09,30.05,30.01,10,10,6,8,4,,0.00,0,,98
2013-8-24,88,80,71,70,68,64,91,69,45,30.20,30.12,30.06,10,10,6,12,7,,0.00,0,,100
2013-8-25,90,80,71,71,68,64,90,68,42,30.22,30.18,30.13,10,9,5,9,6,,0.00,1,,117
2013-8-26,89,80,72,71,68,66,91,69,48,30.22,30.17,30.11,10,10,7,10,6,,0.00,1,,153
2013-8-27,88,78,69,70,65,63,87,68,43,30.16,30.10,30.04,10,9,2,13,4,,0.00,1,,180
2013-8-28,90,80,69,70,68,65,90,68,46,30.09,30.06,30.03,10,10,7,13,4,16,0.00,0,,199
2013-8-29,91,82,72,72,69,65,91,68,41,30.09,30.04,30.00,10,10,10,12,3,,0.00,1,,193
2013-8-30,93,82,72,73,69,66,91,66,42,30.02,29.96,29.89,10,10,7,12,5,20,0.00,0,,175
2013-8-31,95,84,72,72,68,65,87,61,38,29.93,29.87,29.82,10,10,9,13,6,16,0.00,0,,183